Time;durP1;ratioP1;P1;durP2;ratioP2;P2;SDS_P1;SDS_P2;PMS_P1;PMS_P2;Temp;Humidity;BMP_temperature;BMP_pressure;BME280_temperature;BME280_humidity;BME280_pressure;Samples;Min_cycle;Max_cycle;Signal;HPM_P1;HPM_P2
2022/08/08 00:01:09;;;;;;;6.13;2.83;;;;;;;21.50;44.17;102367.44;5049919;28;20083;-60
2022/08/08 00:03:47;;;;;;;3.40;2.85;;;;;;;21.48;44.10;102369.59;5063052;28;20041;-59
2022/08/08 00:06:27;;;;;;;4.20;2.67;;;;;;;21.47;44.24;102361.66;5061657;28;20053;-59
2022/08/08 00:09:05;;;;;;;6.85;2.83;;;;;;;21.45;44.23;102364.63;5065087;28;20456;-59
2022/08/08 00:11:39;;;;;;;4.63;2.65;;;;;;;21.43;44.35;102364.06;5064058;28;20448;-59
2022/08/08 00:14:36;;;;;;;4.63;2.55;;;;;;;21.42;44.50;102355.03;5063481;28;20065;-60
2022/08/08 00:17:32;;;;;;;4.80;2.70;;;;;;;21.41;44.55;102368.97;5063807;28;20123;-60
2022/08/08 00:20:29;;;;;;;5.40;3.00;;;;;;;21.40;44.44;102364.59;5064683;28;20053;-59
2022/08/08 00:23:03;;;;;;;5.38;2.97;;;;;;;21.37;44.55;102365.91;5059528;28;20103;-60
2022/08/08 00:25:39;;;;;;;6.82;2.63;;;;;;;21.36;44.55;102366.19;5063028;28;20049;-59
2022/08/08 00:28:24;;;;;;;4.78;2.72;;;;;;;21.35;44.90;102370.81;5061793;28;20061;-60
2022/08/08 00:31:08;;;;;;;5.78;2.97;;;;;;;21.30;45.01;102373.50;5065181;28;20447;-59
2022/08/08 00:37:01;;;;;;;8.75;3.10;;;;;;;21.28;45.23;102385.78;5064274;28;20566;-59
2022/08/08 00:39:45;;;;;;;5.75;3.30;;;;;;;21.26;45.37;102371.53;5058980;28;20080;-60
2022/08/08 00:42:57;;;;;;;6.45;3.00;;;;;;;21.24;45.43;102380.00;5055342;28;20045;-59
2022/08/08 00:46:03;;;;;;;5.70;3.25;;;;;;;21.22;45.64;102370.41;5049301;28;20075;-60
2022/08/08 00:49:03;;;;;;;7.57;2.92;;;;;;;21.20;45.48;102372.53;5062141;28;20068;-60
2022/08/08 00:52:19;;;;;;;4.05;3.05;;;;;;;21.18;45.51;102364.59;5060941;28;20045;-59
2022/08/08 00:55:10;;;;;;;6.70;2.80;;;;;;;21.17;45.48;102368.41;5064907;28;20049;-59
2022/08/08 00:58:28;;;;;;;8.98;3.30;;;;;;;21.15;45.70;102367.81;5062914;28;20049;-59
2022/08/08 01:01:12;;;;;;;4.53;2.80;;;;;;;21.13;45.50;102367.25;5052796;28;20057;-59
2022/08/08 01:04:27;;;;;;;6.20;2.95;;;;;;;21.12;45.64;102365.59;5051679;28;20055;-59
2022/08/08 01:07:26;;;;;;;7.72;3.15;;;;;;;21.11;45.62;102363.94;4977633;28;20054;-61
2022/08/08 01:10:41;;;;;;;5.38;3.17;;;;;;;21.09;45.64;102357.91;5003037;28;20054;-60
2022/08/08 01:13:44;;;;;;;5.13;3.20;;;;;;;21.06;45.92;102361.16;4994820;28;20463;-59
2022/08/08 01:17:04;;;;;;;8.93;3.20;;;;;;;21.03;45.94;102358.94;5000316;28;20046;-60
2022/08/08 01:20:14;;;;;;;4.28;3.00;;;;;;;21.01;46.12;102356.47;4985802;28;20050;-59
2022/08/08 01:23:20;;;;;;;5.78;3.10;;;;;;;20.99;46.10;102358.63;4994561;28;20054;-60
2022/08/08 01:26:40;;;;;;;4.00;2.90;;;;;;;20.96;46.17;102356.38;5000565;28;20054;-59
2022/08/08 01:29:46;;;;;;;7.90;3.45;;;;;;;20.96;46.07;102358.31;4994397;28;20050;-60
2022/08/08 01:33:08;;;;;;;5.05;3.22;;;;;;;20.94;46.46;102357.72;4999851;28;20431;-60
2022/08/08 01:36:30;;;;;;;7.32;3.22;;;;;;;20.91;46.56;102358.22;4995041;28;20047;-59
2022/08/08 01:39:15;;;;;;;5.88;3.03;;;;;;;20.90;46.50;102354.69;4996039;28;20074;-59
2022/08/08 01:41:57;;;;;;;7.10;3.55;;;;;;;20.89;46.39;102349.47;5009717;28;20054;-59
2022/08/08 01:44:42;;;;;;;5.90;3.13;;;;;;;20.87;46.58;102343.44;5054854;28;20045;-60
2022/08/08 01:47:28;;;;;;;7.15;3.40;;;;;;;20.79;46.88;102339.25;5058247;28;20084;-59
2022/08/08 01:50:29;;;;;;;7.35;3.47;;;;;;;20.85;46.73;102353.78;5048774;28;20068;-59
2022/08/08 01:53:16;;;;;;;5.35;3.50;;;;;;;20.84;46.79;102344.75;5047461;28;20049;-59
2022/08/08 01:56:17;;;;;;;6.78;3.30;;;;;;;20.82;46.88;102351.56;5053018;28;20052;-59
2022/08/08 01:59:12;;;;;;;5.82;3.13;;;;;;;20.80;46.87;102352.63;5055423;28;20053;-60
2022/08/08 02:02:00;;;;;;;4.97;3.25;;;;;;;20.80;47.05;102354.56;5055119;28;20135;-59
2022/08/08 02:04:39;;;;;;;8.73;3.83;;;;;;;20.78;47.16;102354.00;5057752;28;20046;-60
2022/08/08 02:07:16;;;;;;;6.80;3.13;;;;;;;20.76;47.03;102348.78;5061836;28;20056;-60
2022/08/08 02:10:07;;;;;;;6.18;3.85;;;;;;;20.74;47.11;102350.94;5058709;28;20051;-60
2022/08/08 02:12:50;;;;;;;6.40;3.58;;;;;;;20.73;47.08;102357.50;5057100;28;20072;-60
2022/08/08 02:15:29;;;;;;;8.95;4.60;;;;;;;20.71;47.27;102359.66;5047392;28;20072;-60
2022/08/08 02:18:11;;;;;;;6.93;3.58;;;;;;;20.71;47.48;102362.38;5060833;28;20063;-60
2022/08/08 02:22:30;;;;;;;7.07;3.88;;;;;;;20.69;47.60;102361.81;5062225;28;20049;-60
2022/08/08 02:23:50;;;;;;;6.00;3.50;;;;;;;20.67;47.57;102357.69;5064242;28;20080;-60
2022/08/08 02:26:28;;;;;;;8.15;4.07;;;;;;;20.65;47.50;102357.94;5066873;28;20056;-60
2022/08/08 02:29:11;;;;;;;6.85;3.97;;;;;;;20.65;47.72;102365.31;5056893;28;20083;-60
2022/08/08 02:32:05;;;;;;;6.43;3.60;;;;;;;20.62;47.62;102361.16;5067027;28;20045;-60
2022/08/08 02:35:00;;;;;;;6.60;3.63;;;;;;;20.60;47.39;102360.59;5059068;28;20497;-60
2022/08/08 02:37:57;;;;;;;7.82;4.03;;;;;;;20.61;47.72;102364.16;5049775;28;20049;-60
2022/08/08 02:40:37;;;;;;;8.05;4.88;;;;;;;20.56;47.85;102356.72;5058782;28;20136;-60
2022/08/08 02:43:36;;;;;;;9.73;4.20;;;;;;;20.55;47.89;102359.69;5061275;28;20053;-60
2022/08/08 02:46:50;;;;;;;6.22;3.80;;;;;;;20.52;47.99;102354.72;5060737;28;20057;-61
2022/08/08 02:49:40;;;;;;;6.03;4.05;;;;;;;20.51;47.80;102350.34;5054451;28;20061;-61
2022/08/08 02:52:47;;;;;;;7.40;4.00;;;;;;;20.49;47.83;102352.50;5062994;28;20088;-59
2022/08/08 02:55:52;;;;;;;6.68;4.13;;;;;;;20.48;47.94;102354.41;5065262;28;20056;-59
2022/08/08 02:59:14;;;;;;;7.18;3.70;;;;;;;20.46;48.00;102356.56;5059866;28;20084;-59
2022/08/08 03:02:37;;;;;;;6.13;3.97;;;;;;;20.42;48.09;102353.50;5022428;28;20550;-59
2022/08/08 03:05:28;;;;;;;5.75;3.67;;;;;;;20.42;48.13;102358.97;5023783;28;20053;-59
2022/08/08 03:08:42;;;;;;;7.15;4.53;;;;;;;20.42;48.10;102360.88;5019124;28;20077;-59
2022/08/08 03:12:03;;;;;;;7.80;3.97;;;;;;;20.39;48.15;102355.91;5023694;28;20478;-59
2022/08/08 03:15:05;;;;;;;7.65;4.47;;;;;;;20.39;48.18;102361.38;5023410;28;20062;-60
2022/08/08 03:17:59;;;;;;;5.97;4.15;;;;;;;20.36;47.99;102362.69;5018890;28;20552;-59
2022/08/08 03:20:43;;;;;;;8.73;3.92;;;;;;;20.36;48.00;102359.94;5023665;28;20109;-59
2022/08/08 03:23:21;;;;;;;5.88;3.85;;;;;;;20.33;47.96;102352.25;5024427;28;20065;-60
2022/08/08 03:25:51;;;;;;;7.57;3.78;;;;;;;20.32;48.19;102358.78;5024441;28;20064;-62
2022/08/08 03:28:32;;;;;;;7.80;4.07;;;;;;;20.31;48.31;102359.88;5022674;28;20073;-59
2022/08/08 03:33:16;;;;;;;8.40;4.15;;;;;;;20.30;48.40;102358.22;5023223;28;20081;-59
2022/08/08 03:33:51;;;;;;;8.35;3.83;;;;;;;20.28;48.41;102354.91;5023055;28;20058;-60
2022/08/08 03:36:26;;;;;;;8.32;4.70;;;;;;;20.27;48.82;102366.91;5011657;28;20042;-59
2022/08/08 03:39:00;;;;;;;8.25;4.38;;;;;;;20.24;49.03;102369.31;5059516;28;20049;-59
2022/08/08 03:41:42;;;;;;;8.68;4.30;;;;;;;20.22;49.09;102377.75;5057381;28;20121;-60
2022/08/08 03:44:32;;;;;;;8.85;4.57;;;;;;;20.20;49.16;102374.44;5052495;28;20049;-59
2022/08/08 03:47:01;;;;;;;6.43;3.90;;;;;;;20.18;49.33;102376.59;5065023;28;20470;-59
2022/08/08 03:49:46;;;;;;;5.93;4.20;;;;;;;20.15;49.42;102372.44;5064356;28;20090;-60
2022/08/08 03:52:30;;;;;;;7.43;4.82;;;;;;;20.15;49.32;102377.09;5059665;28;20136;-61
2022/08/08 03:55:09;;;;;;;7.03;4.05;;;;;;;20.12;49.42;102372.94;5056477;28;20151;-59
2022/08/08 03:57:56;;;;;;;7.88;4.80;;;;;;;20.12;49.62;102375.69;5065118;28;20045;-60
2022/08/08 04:00:50;;;;;;;7.30;4.93;;;;;;;20.10;49.50;102382.47;5064029;28;20052;-61
2022/08/08 04:03:38;;;;;;;14.70;4.95;;;;;;;20.08;49.33;102385.44;5053329;28;20057;-60
2022/08/08 04:06:25;;;;;;;8.60;4.80;;;;;;;20.08;49.62;102390.06;5049844;28;20059;-59
2022/08/08 04:08:56;;;;;;;8.45;3.90;;;;;;;20.05;49.54;102391.41;5062952;28;20053;-59
2022/08/08 04:11:26;;;;;;;6.88;4.30;;;;;;;20.05;49.84;102393.28;5057418;28;20045;-60
2022/08/08 04:13:59;;;;;;;6.10;4.20;;;;;;;20.00;49.79;102390.47;5063251;28;20056;-59
2022/08/08 04:16:47;;;;;;;11.25;5.85;;;;;;;20.00;50.02;102396.75;5059530;28;20502;-59
2022/08/08 04:19:15;;;;;;;7.20;4.50;;;;;;;19.99;49.81;102397.00;5056559;28;20041;-59
2022/08/08 04:21:50;;;;;;;5.80;4.15;;;;;;;19.98;49.81;102398.91;5062102;28;20077;-59
2022/08/08 04:24:18;;;;;;;9.77;4.53;;;;;;;19.97;49.92;102402.72;5052565;28;20049;-60
2022/08/08 04:26:59;;;;;;;7.03;4.15;;;;;;;19.95;49.72;102391.22;5052242;28;20094;-59
2022/08/08 04:29:27;;;;;;;6.75;4.05;;;;;;;19.96;49.66;102400.25;5064647;28;20379;-59
2022/08/08 04:32:04;;;;;;;;;;;;;;;19.95;49.66;102402.13;5059951;28;20091;-59
2022/08/08 04:34:33;;;;;;;6.07;4.10;;;;;;;19.94;49.66;102399.66;5057584;28;19990;-59
2022/08/08 04:37:21;;;;;;;7.55;4.13;;;;;;;19.94;49.66;102405.13;5065261;28;20044;-58
2022/08/08 04:39:59;;;;;;;9.07;4.72;;;;;;;19.92;49.86;102404.53;5058849;28;20056;-58
2022/08/08 04:42:35;;;;;;;7.20;4.10;;;;;;;19.91;49.80;102414.63;5063856;28;20052;-59
2022/08/08 04:45:13;;;;;;;8.27;4.40;;;;;;;19.91;49.63;102413.78;5054606;28;20105;-59
2022/08/08 04:47:41;;;;;;;7.45;4.55;;;;;;;19.89;49.70;102418.66;5053675;28;20044;-60
2022/08/08 04:50:13;;;;;;;7.05;4.03;;;;;;;19.89;49.86;102424.97;5055752;28;20048;-59
2022/08/08 04:52:55;;;;;;;5.53;3.88;;;;;;;19.88;49.80;102412.38;5056580;28;20049;-60
2022/08/08 04:55:31;;;;;;;10.07;4.10;;;;;;;19.86;49.72;102428.16;5062377;28;20045;-59
2022/08/08 04:58:16;;;;;;;7.05;4.43;;;;;;;19.86;49.69;102425.44;5055441;28;20056;-60
2022/08/08 05:00:44;;;;;;;6.65;4.00;;;;;;;19.86;49.77;102424.63;5051470;28;20057;-59
2022/08/08 05:03:16;;;;;;;7.53;4.07;;;;;;;19.85;49.78;102423.78;5053462;28;20041;-60
2022/08/08 05:06:04;;;;;;;6.30;4.00;;;;;;;19.83;49.78;102423.22;5057635;28;20049;-60
2022/08/08 05:08:46;;;;;;;8.95;4.13;;;;;;;19.80;49.79;102420.97;5063894;28;20048;-60
2022/08/08 05:11:19;;;;;;;9.88;4.65;;;;;;;19.82;49.81;102429.75;5063896;28;20114;-60
2022/08/08 05:13:53;;;;;;;11.82;3.72;;;;;;;19.81;50.07;102430.81;5062677;28;20061;-60
2022/08/08 05:16:27;;;;;;;9.25;4.93;;;;;;;19.79;50.02;102431.06;5058698;28;20045;-60
2022/08/08 05:19:15;;;;;;;6.88;4.38;;;;;;;19.77;50.04;102432.38;5057869;28;20049;-60
2022/08/08 05:22:03;;;;;;;8.48;4.47;;;;;;;19.78;50.53;102436.75;5054908;28;20056;-59
2022/08/08 05:24:31;;;;;;;10.43;4.38;;;;;;;19.76;50.41;102433.44;5052200;28;20053;-60
2022/08/08 05:26:58;;;;;;;5.65;3.80;;;;;;;19.75;50.68;102434.50;5063993;28;20060;-60
2022/08/08 05:29:28;;;;;;;6.97;4.47;;;;;;;19.74;50.75;102430.97;5055699;28;20049;-60
2022/08/08 05:31:56;;;;;;;5.82;4.70;;;;;;;19.73;50.60;102433.94;5058255;28;20083;-60
2022/08/08 05:34:35;;;;;;;6.95;4.20;;;;;;;19.71;50.71;102439.63;5059504;28;20069;-60
2022/08/08 05:37:04;;;;;;;7.15;3.90;;;;;;;19.72;50.91;102426.81;5050721;28;20053;-61
2022/08/08 05:39:49;;;;;;;8.10;3.65;;;;;;;19.73;50.74;102434.75;5054486;28;20214;-60
2022/08/08 05:42:22;;;;;;;4.40;3.35;;;;;;;19.72;50.44;102432.28;5057723;28;20099;-60
2022/08/08 05:44:54;;;;;;;5.90;3.75;;;;;;;19.74;49.97;102433.69;5058011;28;20075;-61
2022/08/08 05:47:27;;;;;;;7.03;3.70;;;;;;;19.75;49.93;102439.97;5060736;28;20041;-60
2022/08/08 05:50:17;;;;;;;7.25;3.97;;;;;;;19.78;49.74;102440.31;5058126;28;20072;-60
2022/08/08 05:52:47;;;;;;;5.50;3.53;;;;;;;19.78;49.71;102437.59;5062772;28;20087;-60
2022/08/08 05:55:15;;;;;;;4.75;3.22;;;;;;;19.79;49.80;102441.13;5056973;28;20080;-60
2022/08/08 05:57:47;;;;;;;6.15;3.50;;;;;;;19.79;49.86;102449.31;5061937;28;20072;-60
2022/08/08 06:00:35;;;;;;;4.90;3.67;;;;;;;19.79;49.92;102441.13;5049798;28;20053;-60
2022/08/08 06:03:12;;;;;;;7.63;3.90;;;;;;;19.79;50.02;102441.13;5065363;28;20045;-61
2022/08/08 06:05:53;;;;;;;6.38;3.47;;;;;;;19.77;50.18;102441.38;5058293;28;20045;-61
2022/08/08 06:08:29;;;;;;;4.80;3.55;;;;;;;19.77;50.16;102446.00;5067216;28;20060;-60
2022/08/08 06:11:03;;;;;;;13.88;5.10;;;;;;;19.75;50.83;102451.72;5063673;28;20163;-61
2022/08/08 06:13:32;;;;;;;5.97;4.28;;;;;;;19.77;50.73;102448.75;5056241;28;20049;-60
2022/08/08 06:16:15;;;;;;;10.98;4.10;;;;;;;19.76;50.97;102444.34;5063870;28;20122;-61
2022/08/08 06:18:47;;;;;;;5.75;3.53;;;;;;;19.77;50.69;102446.84;5066677;28;20055;-61
2022/08/08 06:21:18;;;;;;;6.45;3.55;;;;;;;19.77;51.08;102455.03;5065767;28;20057;-61
2022/08/08 06:24:01;;;;;;;5.78;3.53;;;;;;;19.77;50.91;102459.66;5053839;28;20056;-61
2022/08/08 06:26:50;;;;;;;5.15;3.47;;;;;;;19.75;50.38;102465.34;5062497;28;20045;-60
2022/08/08 06:29:26;;;;;;;6.22;3.58;;;;;;;19.76;51.11;102477.91;5065106;28;20059;-60
2022/08/08 06:32:16;;;;;;;5.90;3.72;;;;;;;19.74;50.74;102471.06;4709647;28;10001042;-60
2022/08/08 06:34:46;;;;;;;6.25;3.65;;;;;;;19.74;50.51;102474.59;5062984;28;20053;-60
2022/08/08 06:37:38;;;;;;;4.78;3.42;;;;;;;19.72;51.09;102470.47;5061921;28;20041;-60
2022/08/08 06:40:10;;;;;;;7.53;3.60;;;;;;;19.71;50.81;102480.56;5055345;28;20076;-60
2022/08/08 06:42:50;;;;;;;6.30;3.90;;;;;;;19.71;50.97;102475.09;5046499;28;20094;-60
2022/08/08 06:45:21;;;;;;;6.60;3.30;;;;;;;19.69;50.87;102474.50;5054006;28;20106;-60
2022/08/08 06:47:51;;;;;;;5.88;3.50;;;;;;;19.69;51.06;102479.97;5059436;28;20044;-60
2022/08/08 06:50:31;;;;;;;7.25;3.90;;;;;;;19.67;51.08;102475.81;5064590;28;20061;-62
2022/08/08 06:53:07;;;;;;;7.40;4.05;;;;;;;19.69;51.55;102481.88;5053845;28;20045;-59
2022/08/08 06:55:47;;;;;;;6.60;3.85;;;;;;;19.67;50.91;102479.38;5057152;28;20052;-62
2022/08/08 06:58:29;;;;;;;5.43;3.63;;;;;;;19.70;50.99;102480.78;5059822;28;20051;-61
2022/08/08 07:01:02;;;;;;;7.03;3.63;;;;;;;19.71;51.34;102488.75;5060109;28;20052;-59
2022/08/08 07:03:55;;;;;;;5.50;3.60;;;;;;;19.72;51.12;102498.56;5057197;28;20053;-59
2022/08/08 07:06:49;;;;;;;11.75;4.47;;;;;;;19.74;51.50;102490.16;5059283;28;20045;-61
2022/08/08 07:09:20;;;;;;;9.07;3.70;;;;;;;19.74;51.26;102487.41;5062622;28;20056;-59
2022/08/08 07:11:50;;;;;;;8.50;3.83;;;;;;;19.74;51.58;102487.41;5062454;28;20072;-59
2022/08/08 07:14:27;;;;;;;7.55;3.33;;;;;;;19.73;51.73;102493.94;5061053;28;20124;-60
2022/08/08 07:17:03;;;;;;;6.90;3.40;;;;;;;19.71;51.63;102491.47;5057729;28;20060;-62
2022/08/08 07:19:52;;;;;;;6.18;3.33;;;;;;;19.74;51.79;102499.16;5063851;28;20083;-60
2022/08/08 07:22:37;;;;;;;6.90;3.30;;;;;;;19.73;51.64;102500.22;5061044;28;20107;-61
2022/08/08 07:25:09;;;;;;;8.32;3.90;;;;;;;19.73;51.83;102494.78;5061955;28;20081;-61
2022/08/08 07:27:46;;;;;;;10.60;4.03;;;;;;;19.75;51.61;102500.81;5050955;28;20059;-60
2022/08/08 07:30:34;;;;;;;6.18;2.92;;;;;;;19.77;51.47;102497.84;5051945;28;20057;-61
2022/08/08 07:33:03;;;;;;;4.53;2.90;;;;;;;19.78;51.38;102507.69;5054416;28;20057;-62
2022/08/08 07:35:33;;;;;;;5.70;3.03;;;;;;;19.78;51.52;102494.88;5057164;28;20078;-60
2022/08/08 07:38:03;;;;;;;5.90;3.65;;;;;;;19.82;51.66;102508.88;5058884;28;20041;-60
2022/08/08 07:40:48;;;;;;;3.83;2.63;;;;;;;19.82;51.79;102498.78;5057048;28;20057;-61
2022/08/08 07:43:20;;;;;;;7.75;3.13;;;;;;;19.84;51.55;102506.72;5059302;28;20063;-60
2022/08/08 07:46:04;;;;;;;6.03;3.05;;;;;;;19.85;52.22;102516.56;5061371;28;20049;-62
2022/08/08 07:48:51;;;;;;;5.93;3.13;;;;;;;19.83;51.49;102505.88;5054608;28;20083;-62
2022/08/08 07:51:21;;;;;;;5.28;2.90;;;;;;;19.85;51.31;102508.38;5054580;28;20049;-63
2022/08/08 07:54:19;;;;;;;8.23;2.45;;;;;;;19.85;51.22;102510.28;5054069;28;20053;-61
2022/08/08 07:57:02;;;;;;;6.22;2.53;;;;;;;19.86;51.06;102520.13;5060018;28;20083;-62
2022/08/08 07:59:43;;;;;;;5.07;2.38;;;;;;;19.87;50.84;102521.78;5057411;28;20057;-62
2022/08/08 08:02:21;;;;;;;4.05;2.33;;;;;;;19.87;50.59;102522.59;5061386;28;20465;-63
2022/08/08 08:05:11;;;;;;;9.02;2.45;;;;;;;19.86;50.55;102523.69;5060471;28;20048;-62
2022/08/08 08:07:46;;;;;;;3.55;2.40;;;;;;;19.87;50.28;102522.59;5063313;28;20053;-62
2022/08/08 08:10:20;;;;;;;5.28;2.15;;;;;;;19.88;50.50;102527.00;5057795;28;20083;-62
2022/08/08 08:13:19;;;;;;;6.00;2.15;;;;;;;19.90;50.21;102529.47;5056338;28;20075;-62
2022/08/08 08:16:00;;;;;;;4.20;2.55;;;;;;;19.90;50.20;102524.03;5062518;28;20140;-62
2022/08/08 08:18:33;;;;;;;;;;;;;;;19.91;50.26;102537.41;5054415;28;20068;-62
2022/08/08 08:21:19;;;;;;;4.53;2.30;;;;;;;19.93;50.21;102534.44;5050676;28;19931;-62
2022/08/08 08:24:09;;;;;;;5.60;2.30;;;;;;;19.95;49.90;102535.03;5057755;28;20394;-62
2022/08/08 08:26:39;;;;;;;3.38;2.22;;;;;;;19.95;50.03;102535.84;5054726;28;20070;-62
2022/08/08 08:29:19;;;;;;;5.60;1.92;;;;;;;19.96;49.92;102534.78;5047393;28;20046;-62
2022/08/08 08:31:48;;;;;;;6.90;2.92;;;;;;;19.97;50.02;102530.16;5053292;28;20083;-62
2022/08/08 08:34:24;;;;;;;6.00;2.10;;;;;;;19.95;49.99;102535.84;5052079;28;20053;-62
2022/08/08 08:36:59;;;;;;;5.18;2.10;;;;;;;19.99;50.00;102531.56;5056417;28;20072;-61
2022/08/08 08:39:36;;;;;;;5.10;2.22;;;;;;;20.01;49.91;102531.31;5058097;28;20121;-61
2022/08/08 08:42:24;;;;;;;5.78;2.10;;;;;;;20.03;50.05;102535.47;5050504;28;20056;-61
2022/08/08 08:45:04;;;;;;;8.07;2.20;;;;;;;20.04;50.06;102542.59;5044841;28;20051;-61
2022/08/08 08:47:50;;;;;;;5.10;2.30;;;;;;;20.04;50.24;102539.84;5058781;28;20471;-62
2022/08/08 08:50:20;;;;;;;4.25;2.15;;;;;;;20.04;50.07;102539.03;5060372;28;20053;-61
2022/08/08 08:53:03;;;;;;;4.13;1.65;;;;;;;20.04;49.73;102528.94;5050241;28;20110;-61
2022/08/08 08:55:54;;;;;;;5.95;2.03;;;;;;;20.06;49.95;102532.25;5041221;28;20452;-63
2022/08/08 08:58:30;;;;;;;5.05;2.05;;;;;;;20.06;50.03;102532.25;5057646;28;20110;-64
2022/08/08 09:01:00;;;;;;;3.80;2.05;;;;;;;20.07;50.03;102544.00;5058738;28;20057;-61
2022/08/08 09:03:38;;;;;;;7.28;2.10;;;;;;;20.10;50.15;102538.88;5048313;28;20045;-61
2022/08/08 09:06:20;;;;;;;4.38;1.92;;;;;;;20.13;50.02;102537.56;5059150;28;20059;-61
2022/08/08 09:09:03;;;;;;;2.90;1.55;;;;;;;20.15;50.07;102544.44;5057179;28;20049;-61
2022/08/08 09:11:34;;;;;;;4.97;1.92;;;;;;;20.18;50.18;102545.84;5050743;28;20073;-61
2022/08/08 09:14:23;;;;;;;4.57;1.70;;;;;;;20.19;50.18;102539.31;5054579;28;20163;-61
2022/08/08 09:16:53;;;;;;;5.32;2.20;;;;;;;20.22;50.05;102546.19;5050512;28;20090;-61
2022/08/08 09:19:22;;;;;;;3.65;1.88;;;;;;;20.22;49.97;102548.91;5047504;28;20053;-61
2022/08/08 09:22:11;;;;;;;5.10;1.88;;;;;;;20.25;49.79;102537.50;5059614;28;20065;-61
2022/08/08 09:24:39;;;;;;;5.07;2.38;;;;;;;20.26;49.78;102541.91;5055206;28;20041;-62
2022/08/08 09:27:12;;;;;;;5.53;1.90;;;;;;;20.28;49.97;102539.75;5055135;28;20581;-61
2022/08/08 09:29:51;;;;;;;3.58;1.88;;;;;;;20.30;49.75;102540.34;5057282;28;20049;-61
2022/08/08 09:32:36;;;;;;;4.22;2.22;;;;;;;20.32;49.74;102540.91;5045191;28;20076;-61
2022/08/08 09:35:07;;;;;;;4.13;1.70;;;;;;;20.35;50.05;102543.16;5058577;28;20056;-61
2022/08/08 09:37:44;;;;;;;3.58;1.90;;;;;;;20.38;50.20;102539.94;5060223;28;20327;-61
2022/08/08 09:40:30;;;;;;;3.60;1.55;;;;;;;20.42;50.33;102541.97;5055793;28;20135;-61
2022/08/08 09:43:29;;;;;;;2.92;1.40;;;;;;;20.47;50.13;102541.22;5059178;28;20196;-61
2022/08/08 09:46:17;;;;;;;2.67;1.50;;;;;;;20.50;50.35;102535.25;5053540;28;20055;-62
2022/08/08 09:48:57;;;;;;;7.45;1.50;;;;;;;20.52;49.93;102533.13;5057059;28;20041;-61
2022/08/08 09:51:51;;;;;;;3.65;1.50;;;;;;;20.53;49.57;102534.75;5058775;28;20044;-61
2022/08/08 09:54:41;;;;;;;2.90;1.60;;;;;;;20.55;50.10;102534.53;5059587;28;20056;-60
2022/08/08 09:57:12;;;;;;;3.20;1.45;;;;;;;20.56;50.13;102525.25;5056088;28;20053;-61
2022/08/08 09:59:49;;;;;;;4.57;1.48;;;;;;;20.62;50.19;102529.72;5059517;28;20143;-61
2022/08/08 10:02:39;;;;;;;3.40;1.60;;;;;;;20.65;49.94;102524.59;5056116;28;20124;-61
2022/08/08 10:05:11;;;;;;;3.35;1.40;;;;;;;20.71;50.06;102525.50;5054054;28;20087;-61
2022/08/08 10:07:54;;;;;;;3.75;1.90;;;;;;;20.75;50.29;102527.47;5059988;28;20057;-61
2022/08/08 10:10:29;;;;;;;5.90;1.93;;;;;;;20.80;50.48;102533.00;5056136;28;20052;-61
2022/08/08 10:12:59;;;;;;;2.83;1.38;;;;;;;20.85;50.26;102524.06;5055564;28;20303;-61
2022/08/08 10:15:46;;;;;;;3.47;1.70;;;;;;;20.88;49.98;102523.56;5054914;28;20076;-61
2022/08/08 10:18:29;;;;;;;2.33;1.10;;;;;;;20.91;50.01;102527.69;5056912;28;20580;-60
2022/08/08 10:21:02;;;;;;;3.08;1.45;;;;;;;20.94;49.72;102521.72;5053379;28;20049;-61
2022/08/08 10:23:51;;;;;;;4.10;1.30;;;;;;;20.95;49.58;102524.22;5058487;28;20067;-61
2022/08/08 10:26:29;;;;;;;4.30;1.50;;;;;;;20.95;49.25;102524.22;5058426;28;20045;-61
2022/08/08 10:29:23;;;;;;;2.95;1.25;;;;;;;20.95;49.44;102517.91;5052755;28;20584;-61
2022/08/08 10:34:50;;;;;;;3.45;1.67;;;;;;;20.99;49.67;102516.34;5057033;28;20049;-61
2022/08/08 10:37:29;;;;;;;3.97;1.23;;;;;;;21.00;49.80;102512.53;5052582;28;20049;-62
2022/08/08 10:39:58;;;;;;;1.88;1.20;;;;;;;21.11;49.27;102522.53;5056518;28;20118;-61
2022/08/08 10:42:34;;;;;;;;;;;;;;;21.13;49.26;102521.19;5058078;28;20087;-61
2022/08/08 10:45:06;;;;;;;4.25;1.48;;;;;;;21.16;49.70;102519.03;5056373;28;19929;-61
2022/08/08 10:47:38;;;;;;;3.15;1.63;;;;;;;21.19;49.61;102513.06;5062206;28;20100;-61
2022/08/08 10:50:14;;;;;;;2.30;1.17;;;;;;;21.21;49.68;102514.47;5062859;28;20111;-63
2022/08/08 10:52:43;;;;;;;2.13;1.13;;;;;;;21.23;49.51;102517.81;5058978;28;20051;-62
2022/08/08 10:55:13;;;;;;;4.13;1.45;;;;;;;21.28;49.57;102512.41;5055962;28;20397;-62
2022/08/08 10:58:03;;;;;;;3.15;1.25;;;;;;;21.32;49.56;102512.72;5062322;28;20071;-64
2022/08/08 11:00:33;;;;;;;5.00;1.67;;;;;;;21.36;49.42;102511.16;5055209;28;20056;-64
2022/08/08 11:03:21;;;;;;;2.92;1.30;;;;;;;21.43;49.60;102515.34;5059767;28;20045;-63
2022/08/08 11:06:06;;;;;;;1.77;1.02;;;;;;;21.46;48.96;102513.19;5051222;28;20128;-63
2022/08/08 11:08:40;;;;;;;3.15;1.20;;;;;;;21.47;48.50;102517.56;5059623;28;20045;-64
2022/08/08 11:11:16;;;;;;;;;;;;;;;21.47;48.70;102509.38;5060109;28;20049;-63
2022/08/08 11:14:05;;;;;;;3.10;1.45;;;;;;;21.51;48.81;102505.03;5057952;28;19927;-63
2022/08/08 11:16:34;;;;;;;3.50;1.40;;;;;;;21.54;48.19;102508.09;5061720;28;20072;-63
2022/08/08 11:19:04;;;;;;;6.00;1.08;;;;;;;21.56;48.20;102513.31;5059352;28;20168;-66
2022/08/08 11:21:40;;;;;;;3.47;1.30;;;;;;;21.57;48.15;102512.22;5056940;28;20052;-66
2022/08/08 11:24:09;;;;;;;5.88;1.20;;;;;;;21.60;48.36;102514.47;5058311;28;20072;-66
2022/08/08 11:26:41;;;;;;;3.65;1.60;;;;;;;21.65;48.67;102500.84;5051086;28;20153;-66
2022/08/08 11:29:26;;;;;;;3.43;1.30;;;;;;;21.71;48.74;102499.81;5054167;28;20135;-72
2022/08/08 11:32:15;;;;;;;4.43;1.55;;;;;;;21.76;48.43;102497.13;5054458;28;20053;-66
2022/08/08 11:34:49;;;;;;;4.30;1.20;;;;;;;21.80;48.30;102492.81;5052258;28;20045;-66
2022/08/08 11:37:39;;;;;;;2.40;1.45;;;;;;;21.81;48.56;102488.16;5061492;28;20071;-66
2022/08/08 11:40:27;;;;;;;1.92;0.98;;;;;;;21.92;48.32;102496.22;5056637;28;20060;-66
2022/08/08 11:43:00;;;;;;;2.20;1.13;;;;;;;21.95;48.10;102500.34;5049732;28;20053;-66
2022/08/08 11:45:29;;;;;;;2.67;1.17;;;;;;;22.01;48.06;102499.31;5061279;28;20052;-66
2022/08/08 11:48:18;;;;;;;2.72;1.02;;;;;;;22.05;47.84;102503.22;5056257;28;20174;-66
2022/08/08 11:50:51;;;;;;;5.35;1.40;;;;;;;22.07;47.79;102499.13;5054292;28;20056;-67
2022/08/08 11:53:21;;;;;;;2.65;1.10;;;;;;;22.12;47.78;102489.31;5058478;28;20065;-66
2022/08/08 11:55:52;;;;;;;2.78;1.30;;;;;;;22.15;47.33;102492.38;5061367;28;20512;-66
2022/08/08 11:58:32;;;;;;;5.03;1.30;;;;;;;22.17;46.78;102503.06;5061617;28;20056;-67
2022/08/08 12:01:04;;;;;;;2.80;1.10;;;;;;;22.12;46.22;102497.53;5060593;28;20100;-67
2022/08/08 12:03:46;;;;;;;3.42;1.25;;;;;;;22.14;46.98;102498.09;5061181;28;20049;-67
2022/08/08 12:06:18;;;;;;;4.40;1.10;;;;;;;22.17;47.29;102487.47;5051298;28;20056;-67
2022/08/08 12:08:47;;;;;;;1.95;1.17;;;;;;;22.22;46.96;102490.25;5053147;28;20063;-67
2022/08/08 12:11:17;;;;;;;2.00;0.98;;;;;;;22.27;46.95;102484.00;5061886;28;20117;-67
2022/08/08 12:14:03;;;;;;;2.95;1.08;;;;;;;22.29;46.44;102479.91;5059444;28;20136;-66
2022/08/08 12:16:34;;;;;;;2.15;1.05;;;;;;;22.34;46.62;102477.22;5059998;28;20056;-66
2022/08/08 12:19:15;;;;;;;4.22;1.45;;;;;;;22.39;46.43;102481.91;5057990;28;20549;-67
2022/08/08 12:22:10;;;;;;;1.38;0.90;;;;;;;22.39;45.79;102479.16;5059987;28;20053;-66
2022/08/08 12:24:48;;;;;;;1.67;1.00;;;;;;;22.39;45.56;102470.94;5054464;28;20478;-66
2022/08/08 12:27:23;;;;;;;2.58;1.17;;;;;;;22.38;45.01;102483.00;5061550;28;20106;-66
2022/08/08 12:29:56;;;;;;;3.53;1.05;;;;;;;22.32;44.88;102462.94;5061254;28;20081;-66
2022/08/08 12:32:23;;;;;;;3.15;1.20;;;;;;;22.38;45.36;102472.03;5058820;28;20057;-66
2022/08/08 12:35:01;;;;;;;2.35;0.90;;;;;;;22.42;45.51;102466.84;5059455;28;20091;-67
2022/08/08 12:37:47;;;;;;;3.83;1.45;;;;;;;22.47;45.36;102472.38;4708611;28;10000651;-66
2022/08/08 12:40:41;;;;;;;2.80;1.00;;;;;;;22.52;45.33;102475.97;5062172;28;20051;-66
2022/08/08 12:43:29;;;;;;;1.50;0.90;;;;;;;22.56;44.97;102463.38;5059389;28;20124;-66